Map

Track Data

SID SEASON NUMBER BASIN SUBBASIN NAME ISO_TIME NATURE LAT LON WMO_WIND WMO_PRES WMO_AGENCY TRACK_TYPE DIST2LAND LANDFALL IFLAG USA_AGENCY USA_ATCF_ID USA_LAT USA_LON USA_RECORD USA_STATUS USA_WIND USA_PRES USA_SSHS USA_R34_NE USA_R34_SE USA_R34_SW USA_R34_NW USA_R50_NE USA_R50_SE USA_R50_SW USA_R50_NW USA_R64_NE USA_R64_SE USA_R64_SW USA_R64_NW USA_POCI USA_ROCI USA_RMW USA_EYE TOKYO_LAT TOKYO_LON TOKYO_GRADE TOKYO_WIND TOKYO_PRES TOKYO_R50_DIR TOKYO_R50_LONG TOKYO_R50_SHORT TOKYO_R30_DIR TOKYO_R30_LONG TOKYO_R30_SHORT TOKYO_LAND CMA_LAT CMA_LON CMA_CAT CMA_WIND CMA_PRES HKO_LAT HKO_LON HKO_CAT HKO_WIND HKO_PRES NEWDELHI_LAT NEWDELHI_LON NEWDELHI_GRADE NEWDELHI_WIND NEWDELHI_PRES NEWDELHI_CI NEWDELHI_DP NEWDELHI_POCI REUNION_LAT REUNION_LON REUNION_TYPE REUNION_WIND REUNION_PRES REUNION_TNUM REUNION_CI REUNION_RMW REUNION_R34_NE REUNION_R34_SE REUNION_R34_SW REUNION_R34_NW REUNION_R50_NE REUNION_R50_SE REUNION_R50_SW REUNION_R50_NW REUNION_R64_NE REUNION_R64_SE REUNION_R64_SW REUNION_R64_NW BOM_LAT BOM_LON BOM_TYPE BOM_WIND BOM_PRES BOM_TNUM BOM_CI BOM_RMW BOM_R34_NE BOM_R34_SE BOM_R34_SW BOM_R34_NW BOM_R50_NE BOM_R50_SE BOM_R50_SW BOM_R50_NW BOM_R64_NE BOM_R64_SE BOM_R64_SW BOM_R64_NW BOM_ROCI BOM_POCI BOM_EYE BOM_POS_METHOD BOM_PRES_METHOD NADI_LAT NADI_LON NADI_CAT NADI_WIND NADI_PRES WELLINGTON_LAT WELLINGTON_LON WELLINGTON_WIND WELLINGTON_PRES DS824_LAT DS824_LON DS824_STAGE DS824_WIND DS824_PRES TD9636_LAT TD9636_LON TD9636_STAGE TD9636_WIND TD9636_PRES TD9635_LAT TD9635_LON TD9635_WIND TD9635_PRES TD9635_ROCI NEUMANN_LAT NEUMANN_LON NEUMANN_CLASS NEUMANN_WIND NEUMANN_PRES MLC_LAT MLC_LON MLC_CLASS MLC_WIND MLC_PRES USA_GUST BOM_GUST BOM_GUST_PER REUNION_GUST REUNION_GUST_PER USA_SEAHGT USA_SEARAD_NE USA_SEARAD_SE USA_SEARAD_SW USA_SEARAD_NW STORM_SPEED STORM_DIR
1881157N21088 1881 19 NI BB NOT_NAMED 1881-06-06 00:00:00 TS 20.8000 87.5000 main 51 15 _________O____ -1 20.8000 87.5000 TC 30 9 288
1881157N21088 1881 19 NI BB NOT_NAMED 1881-06-06 03:00:00 TS 20.9420 87.0419 main 10 0 _________PO___ -1 21.0129 86.8128 TC 30 20.8000 87.5000 1 11 287
1881157N21088 1881 19 NI BB NOT_NAMED 1881-06-06 06:00:00 TS 21.1225 86.3772 main 0 0 _________OP___ -1 21.2000 86.1000 TC 30 21.0062 86.7929 1 13 284
1881157N21088 1881 19 NI BB NOT_NAMED 1881-06-06 09:00:00 TS 21.2737 85.6619 main 0 0 _________PP___ -1 21.3374 85.3500 TC 30 21.1888 86.0776 1 13 280
1881157N21088 1881 19 NI BB NOT_NAMED 1881-06-06 12:00:00 TS 21.3635 84.9742 main 0 0 _________OP___ -1 21.4000 84.6000 TC 30 21.3271 85.3485 1 13 275
1881157N21088 1881 19 NI BB NOT_NAMED 1881-06-06 15:00:00 TS 21.3898 84.2462 main 0 0 _________PO___ -1 21.3796 83.8923 TC 30 21.4000 84.6000 1 14 269
1881157N21088 1881 19 NI BB NOT_NAMED 1881-06-06 18:00:00 TS 21.3471 83.5173 main 0 0 _________OP___ -1 21.3000 83.2000 TC 30 21.3941 83.8346 1 14 265
1881157N21088 1881 19 NI BB NOT_NAMED 1881-06-06 21:00:00 TS 21.2668 82.7666 main 0 0 _________PP___ -1 21.2077 82.4474 TC 30 21.3258 83.0858 1 13 262
1881157N21088 1881 19 NI BB NOT_NAMED 1881-06-07 00:00:00 TS 21.1597 82.0971 main 0 0 _________OP___ -1 21.1000 81.8000 TC 30 21.2194 82.3942 1 11 259
1881157N21088 1881 19 NI BB NOT_NAMED 1881-06-07 03:00:00 TS 21.0497 81.5988 main 0 0 _________PO___ -1 20.9995 81.3977 TC 30 21.1000 81.8000 1 8 255
1881157N21088 1881 19 NI BB NOT_NAMED 1881-06-07 06:00:00 TS 20.9385 81.2247 main 0 0 _________OP___ -1 20.9000 81.1000 TC 30 20.9771 81.3494 1 7 251
1881157N21088 1881 19 NI BB NOT_NAMED 1881-06-07 09:00:00 TS 20.8190 80.8724 main 0 0 _________PP___ -1 20.7849 80.7499 TC 30 20.8530 80.9949 1 7 252
1881157N21088 1881 19 NI BB NOT_NAMED 1881-06-07 12:00:00 TS 20.7262 80.5465 main 0 0 _________OP___ -1 20.7000 80.4000 TC 30 20.7525 80.6930 1 6 257
1881157N21088 1881 19 NI BB NOT_NAMED 1881-06-07 15:00:00 TS 20.6812 80.2250 main 0 0 _________PO___ -1 20.6624 80.0499 TC 30 20.7000 80.4000 1 6 268
1881157N21088 1881 19 NI BB NOT_NAMED 1881-06-07 18:00:00 TS 20.6982 79.8589 main 0 0 _________OP___ -1 20.7000 79.7000 TC 30 20.6964 80.0178 1 7 278
1881157N21088 1881 19 NI BB NOT_NAMED 1881-06-07 21:00:00 TS 20.7789 79.4840 main 0 0 _________PP___ -1 20.8125 79.3276 TC 30 20.7453 79.6404 1 7 289
1881157N21088 1881 19 NI BB NOT_NAMED 1881-06-08 00:00:00 TS 20.9232 79.1464 main 0 0 _________OP___ -1 21.0000 79.0000 TC 30 20.8465 79.2927 1 7 301
1881157N21088 1881 19 NI BB NOT_NAMED 1881-06-08 03:00:00 TS 21.1175 78.8812 main 0 0 _________PO___ -1 21.2349 78.7625 TC 30 21.0000 79.0000 1 6 315
1881157N21088 1881 19 NI BB NOT_NAMED 1881-06-08 06:00:00 TS 21.3476 78.6882 main 0 0 _________OP___ -1 21.5000 78.6000 TC 30 21.1953 78.7764 1 6 327
1881157N21088 1881 19 NI BB NOT_NAMED 1881-06-08 09:00:00 TS 21.5948 78.5438 main 0 0 _________PP___ -1 21.7500 78.4774 TC 30 21.4396 78.6101 1 6 336
1881157N21088 1881 19 NI BB NOT_NAMED 1881-06-08 12:00:00 TS 21.8571 78.4444 main 0 0 _________OP___ -1 22.0000 78.4000 TC 30 21.7141 78.4888 1 6 343
1881157N21088 1881 19 NI BB NOT_NAMED 1881-06-08 15:00:00 TS 22.1212 78.3712 main 0 0 _________PO___ -1 22.2425 78.3424 TC 30 22.0000 78.4000 1 5 347
1881157N21088 1881 19 NI BB NOT_NAMED 1881-06-08 18:00:00 TS 22.3752 78.3186 main 0 0 _________OP___ -1 22.5000 78.3000 TC 30 22.2817 78.3325 1 5 350
1881157N21088 1881 19 NI BB NOT_NAMED 1881-06-08 21:00:00 TS 22.6506 78.2690 main 0 0 _________PP___ -1 22.7900 78.2526 TC 30 22.5576 78.2800 1 6 351
1881157N21088 1881 19 NI BB NOT_NAMED 1881-06-09 00:00:00 TS 22.9199 78.2250 main 0 0 _________OP___ -1 23.1000 78.2000 TC 30 22.8298 78.2375 1 5 351
1881157N21088 1881 19 NI BB NOT_NAMED 1881-06-09 03:00:00 NR 23.1000 78.2000 main 0 __________O___ -1 TC 23.1000 78.2000 1 4 354

About IBTrACS Database

This database is a web-friendly format of International Best Track Archive for Climate Stewardship (IBTrACS), a global best track data archive curated by NOAA dating back to 1842.

Updated: 2021-10-19